Time,TemperatureF,DewpointF,PressureIn,WindDirection,WindDirectionDegrees,WindSpeedMPH,WindSpeedGustMPH,Humidity,HourlyPrecipIn,Conditions,Clouds,dailyrainin,SoftwareType,DateUTC
2013-04-27 00:04:00,63.9,39.0,30.09,SW,231,0.0,-999.0,40,-99.99,,,0.00,weatherlink.com 1.10,2013-04-27 07:04:00,
2013-04-27 00:19:00,63.4,39.0,30.09,SSW,198,0.0,-999.0,40,-99.99,,,0.00,weatherlink.com 1.10,2013-04-27 07:19:00,
2013-04-27 00:34:00,63.5,38.0,30.09,SSW,197,0.0,-999.0,39,-99.99,,,0.00,weatherlink.com 1.10,2013-04-27 07:34:00,
2013-04-27 00:49:00,63.2,38.0,30.09,SSW,197,0.0,-999.0,39,-99.99,,,0.00,weatherlink.com 1.10,2013-04-27 07:49:00,
2013-04-27 01:04:00,62.9,38.0,30.09,SSW,197,0.0,-999.0,40,-99.99,,,0.00,weatherlink.com 1.10,2013-04-27 08:04:00,
2013-04-27 01:19:00,62.3,38.0,30.07,SSW,197,0.0,-999.0,40,-99.99,,,0.00,weatherlink.com 1.10,2013-04-27 08:19:00,
2013-04-27 01:35:00,62.0,38.0,30.07,SSW,197,0.0,-999.0,41,-99.99,,,0.00,weatherlink.com 1.10,2013-04-27 08:35:00,
2013-04-27 01:50:00,61.3,37.0,30.07,SSW,197,0.0,-999.0,41,-99.99,,,0.00,weatherlink.com 1.10,2013-04-27 08:50:00,
2013-04-27 02:05:00,61.2,37.0,30.07,SSW,196,0.0,-999.0,40,-99.99,,,0.00,weatherlink.com 1.10,2013-04-27 09:05:00,
2013-04-27 02:20:00,61.2,37.0,30.06,SSW,199,0.0,-999.0,40,-99.99,,,0.00,weatherlink.com 1.10,2013-04-27 09:20:00,
2013-04-27 02:35:00,61.2,37.0,30.06,SSW,200,0.0,-999.0,40,-99.99,,,0.00,weatherlink.com 1.10,2013-04-27 09:35:00,
2013-04-27 02:50:00,61.0,37.0,30.06,SSW,200,0.0,-999.0,41,-99.99,,,0.00,weatherlink.com 1.10,2013-04-27 09:50:00,
2013-04-27 03:05:00,60.9,37.0,30.06,SSW,202,0.0,-999.0,42,-99.99,,,0.00,weatherlink.com 1.10,2013-04-27 10:05:00,
2013-04-27 03:20:00,61.2,37.0,30.06,SSW,202,0.0,-999.0,41,-99.99,,,0.00,weatherlink.com 1.10,2013-04-27 10:20:00,
2013-04-27 03:35:00,60.9,37.0,30.05,SSW,202,0.0,-999.0,42,-99.99,,,0.00,weatherlink.com 1.10,2013-04-27 10:35:00,
2013-04-27 03:50:00,60.4,37.0,30.06,SSW,202,0.0,-999.0,42,-99.99,,,0.00,weatherlink.com 1.10,2013-04-27 10:50:00,
2013-04-27 04:05:00,59.8,36.0,30.06,SSW,202,0.0,-999.0,41,-99.99,,,0.00,weatherlink.com 1.10,2013-04-27 11:05:00,
2013-04-27 04:20:00,58.4,36.0,30.07,SSW,202,0.0,-999.0,44,-99.99,,,0.00,weatherlink.com 1.10,2013-04-27 11:20:00,
2013-04-27 04:36:00,57.5,36.0,30.07,SSW,202,0.0,-999.0,44,-99.99,,,0.00,weatherlink.com 1.10,2013-04-27 11:36:00,
2013-04-27 04:51:00,56.6,36.0,30.07,SSW,202,0.0,-999.0,46,-99.99,,,0.00,weatherlink.com 1.10,2013-04-27 11:51:00,
2013-04-27 05:06:00,56.0,35.0,30.07,SSW,202,0.0,-999.0,46,-99.99,,,0.00,weatherlink.com 1.10,2013-04-27 12:06:00,
2013-04-27 05:21:00,55.1,36.0,30.08,SSW,202,0.0,-999.0,48,-99.99,,,0.00,weatherlink.com 1.10,2013-04-27 12:21:00,
2013-04-27 05:36:00,54.4,35.0,30.08,SSW,202,0.0,-999.0,49,-99.99,,,0.00,weatherlink.com 1.10,2013-04-27 12:36:00,
2013-04-27 05:51:00,53.8,35.0,30.08,SSW,202,0.0,-999.0,50,-99.99,,,0.00,weatherlink.com 1.10,2013-04-27 12:51:00,
2013-04-27 06:06:00,53.8,35.0,30.09,SSW,202,0.0,-999.0,50,-99.99,,,0.00,weatherlink.com 1.10,2013-04-27 13:06:00,
2013-04-27 06:21:00,53.9,35.0,30.11,SSW,202,0.0,-999.0,50,-99.99,,,0.00,weatherlink.com 1.10,2013-04-27 13:21:00,
2013-04-27 06:36:00,55.6,38.0,30.11,SSW,203,0.0,-999.0,51,-99.99,,,0.00,weatherlink.com 1.10,2013-04-27 13:36:00,
2013-04-27 06:51:00,57.5,36.0,30.11,SSW,204,0.0,-999.0,44,-99.99,,,0.00,weatherlink.com 1.10,2013-04-27 13:51:00,
2013-04-27 07:06:00,59.2,36.0,30.11,South,181,0.0,-999.0,43,-99.99,,,0.00,weatherlink.com 1.10,2013-04-27 14:06:00,
2013-04-27 07:22:00,60.2,36.0,30.12,South,182,0.0,-999.0,41,-99.99,,,0.00,weatherlink.com 1.10,2013-04-27 14:22:00,
2013-04-27 07:37:00,60.4,36.0,30.13,South,182,0.0,-999.0,40,-99.99,,,0.00,weatherlink.com 1.10,2013-04-27 14:37:00,
2013-04-27 07:52:00,62.0,37.0,30.13,SE,142,0.0,-999.0,39,-99.99,,,0.00,weatherlink.com 1.10,2013-04-27 14:52:00,
2013-04-27 08:07:00,65.3,36.0,30.12,SE,142,0.0,-999.0,34,-99.99,,,0.00,weatherlink.com 1.10,2013-04-27 15:07:00,
2013-04-27 08:22:00,67.6,34.0,30.13,SSE,151,4.0,-999.0,29,-99.99,,,0.00,weatherlink.com 1.10,2013-04-27 15:22:00,
2013-04-27 08:37:00,69.3,35.0,30.12,South,178,2.0,-999.0,28,-99.99,,,0.00,weatherlink.com 1.10,2013-04-27 15:37:00,
2013-04-27 08:52:00,72.1,33.0,30.11,South,184,4.0,-999.0,24,-99.99,,,0.00,weatherlink.com 1.10,2013-04-27 15:52:00,
2013-04-27 09:07:00,73.5,32.0,30.10,SW,218,5.0,-999.0,22,-99.99,,,0.00,weatherlink.com 1.10,2013-04-27 16:07:00,
2013-04-27 09:22:00,74.9,32.0,30.10,South,172,0.0,-999.0,21,-99.99,,,0.00,weatherlink.com 1.10,2013-04-27 16:22:00,
2013-04-27 09:37:00,75.8,32.0,30.10,South,179,5.0,-999.0,20,-99.99,,,0.00,weatherlink.com 1.10,2013-04-27 16:37:00,
2013-04-27 09:53:00,76.8,31.0,30.10,South,174,4.0,-999.0,19,-99.99,,,0.00,weatherlink.com 1.10,2013-04-27 16:53:00,
2013-04-27 10:08:00,78.1,33.0,30.10,SSE,150,1.0,-999.0,19,-99.99,,,0.00,weatherlink.com 1.10,2013-04-27 17:08:00,
2013-04-27 10:23:00,79.4,32.0,30.10,SE,138,0.0,-999.0,18,-99.99,,,0.00,weatherlink.com 1.10,2013-04-27 17:23:00,
2013-04-27 10:38:00,80.7,32.0,30.09,ESE,123,0.0,-999.0,17,-99.99,,,0.00,weatherlink.com 1.10,2013-04-27 17:38:00,
2013-04-27 10:53:00,81.6,31.0,30.09,East,88,5.0,-999.0,16,-99.99,,,0.00,weatherlink.com 1.10,2013-04-27 17:53:00,
2013-04-27 11:08:00,82.6,29.0,30.09,SSE,147,0.0,-999.0,14,-99.99,,,0.00,weatherlink.com 1.10,2013-04-27 18:08:00,
2013-04-27 11:23:00,84.0,30.0,30.09,ENE,76,3.0,-999.0,14,-99.99,,,0.00,weatherlink.com 1.10,2013-04-27 18:23:00,
2013-04-27 11:38:00,84.5,28.0,30.08,SE,142,1.0,-999.0,13,-99.99,,,0.00,weatherlink.com 1.10,2013-04-27 18:38:00,
2013-04-27 11:53:00,84.3,28.0,30.07,East,82,2.0,-999.0,13,-99.99,,,0.00,weatherlink.com 1.10,2013-04-27 18:53:00,
2013-04-27 12:08:00,85.7,29.0,30.07,ESE,105,1.0,-999.0,13,-99.99,,,0.00,weatherlink.com 1.10,2013-04-27 19:08:00,
2013-04-27 12:24:00,86.1,28.0,30.06,ENE,67,4.0,-999.0,12,-99.99,,,0.00,weatherlink.com 1.10,2013-04-27 19:24:00,
2013-04-27 12:39:00,86.7,28.0,30.05,ENE,68,6.0,-999.0,12,-99.99,,,0.00,weatherlink.com 1.10,2013-04-27 19:39:00,
2013-04-27 12:54:00,88.0,27.0,30.04,SE,144,1.0,-999.0,11,-99.99,,,0.00,weatherlink.com 1.10,2013-04-27 19:54:00,
2013-04-27 13:09:00,87.8,25.0,30.03,East,84,6.0,-999.0,10,-99.99,,,0.00,weatherlink.com 1.10,2013-04-27 20:09:00,
2013-04-27 13:24:00,88.4,23.0,30.03,SSE,156,0.0,-999.0,9,-99.99,,,0.00,weatherlink.com 1.10,2013-04-27 20:24:00,
2013-04-27 13:39:00,89.5,23.0,30.02,SSE,155,0.0,-999.0,9,-99.99,,,0.00,weatherlink.com 1.10,2013-04-27 20:39:00,
2013-04-27 13:54:00,89.0,20.0,30.01,North,350,1.0,-999.0,8,-99.99,,,0.00,weatherlink.com 1.10,2013-04-27 20:54:00,
2013-04-27 14:09:00,91.2,19.0,30.00,SSE,157,0.0,-999.0,7,-99.99,,,0.00,weatherlink.com 1.10,2013-04-27 21:09:00,
2013-04-27 14:24:00,90.3,15.0,29.99,NE,47,6.0,-999.0,6,-99.99,,,0.00,weatherlink.com 1.10,2013-04-27 21:24:00,
2013-04-27 14:39:00,90.1,18.0,29.99,ESE,113,4.0,-999.0,7,-99.99,,,0.00,weatherlink.com 1.10,2013-04-27 21:39:00,
2013-04-27 14:54:00,90.5,18.0,29.98,ESE,111,6.0,-999.0,7,-99.99,,,0.00,weatherlink.com 1.10,2013-04-27 21:54:00,
2013-04-27 15:10:00,90.1,18.0,29.98,NNW,338,0.0,-999.0,7,-99.99,,,0.00,weatherlink.com 1.10,2013-04-27 22:10:00,
2013-04-27 15:25:00,90.5,18.0,29.97,SW,229,5.0,-999.0,7,-99.99,,,0.00,weatherlink.com 1.10,2013-04-27 22:25:00,
2013-04-27 15:40:00,90.5,18.0,29.96,East,85,0.0,-999.0,7,-99.99,,,0.00,weatherlink.com 1.10,2013-04-27 22:40:00,
2013-04-27 15:55:00,90.3,18.0,29.96,SSW,209,4.0,-999.0,7,-99.99,,,0.00,weatherlink.com 1.10,2013-04-27 22:55:00,
2013-04-27 16:10:00,91.2,19.0,29.96,SW,218,4.0,-999.0,7,-99.99,,,0.00,weatherlink.com 1.10,2013-04-27 23:10:00,
2013-04-27 16:25:00,92.1,20.0,29.96,SW,220,0.0,-999.0,7,-99.99,,,0.00,weatherlink.com 1.10,2013-04-27 23:25:00,
2013-04-27 16:40:00,91.8,28.0,29.96,North,350,17.0,-999.0,10,-99.99,,,0.00,weatherlink.com 1.10,2013-04-27 23:40:00,
2013-04-27 16:55:00,90.7,27.0,29.96,NNW,328,15.0,-999.0,10,-99.99,,,0.00,weatherlink.com 1.10,2013-04-27 23:55:00,
2013-04-27 17:10:00,89.3,23.0,29.97,NW,323,21.0,-999.0,9,-99.99,,,0.00,weatherlink.com 1.10,2013-04-28 00:10:00,
2013-04-27 17:25:00,88.8,23.0,29.98,NW,305,22.0,-999.0,9,-99.99,,,0.00,weatherlink.com 1.10,2013-04-28 00:25:00,
2013-04-27 17:40:00,88.4,23.0,29.97,NNW,327,19.0,-999.0,9,-99.99,,,0.00,weatherlink.com 1.10,2013-04-28 00:40:00,
2013-04-27 17:55:00,87.4,24.0,29.97,NNW,327,24.0,-999.0,10,-99.99,,,0.00,weatherlink.com 1.10,2013-04-28 00:55:00,
2013-04-27 18:11:00,86.3,24.0,29.97,NW,317,21.0,-999.0,10,-99.99,,,0.00,weatherlink.com 1.10,2013-04-28 01:11:00,
2013-04-27 18:26:00,85.1,27.0,29.96,NW,304,21.0,-999.0,12,-99.99,,,0.00,weatherlink.com 1.10,2013-04-28 01:26:00,
2013-04-27 18:41:00,83.8,28.0,29.96,NW,310,23.0,-999.0,13,-99.99,,,0.00,weatherlink.com 1.10,2013-04-28 01:41:00,
2013-04-27 18:56:00,82.8,29.0,29.96,NW,312,24.0,-999.0,14,-99.99,,,0.00,weatherlink.com 1.10,2013-04-28 01:56:00,
2013-04-27 19:11:00,81.6,30.0,29.97,NW,311,16.0,-999.0,15,-99.99,,,0.00,weatherlink.com 1.10,2013-04-28 02:11:00,
2013-04-27 19:26:00,80.7,29.0,29.96,WNW,298,17.0,-999.0,15,-99.99,,,0.00,weatherlink.com 1.10,2013-04-28 02:26:00,
2013-04-27 19:41:00,79.8,30.0,29.96,WNW,295,11.0,-999.0,16,-99.99,,,0.00,weatherlink.com 1.10,2013-04-28 02:41:00,
2013-04-27 19:56:00,78.8,30.0,29.96,WNW,287,13.0,-999.0,17,-99.99,,,0.00,weatherlink.com 1.10,2013-04-28 02:56:00,
2013-04-27 20:11:00,77.2,33.0,29.97,SW,219,7.0,-999.0,20,-99.99,,,0.00,weatherlink.com 1.10,2013-04-28 03:11:00,
2013-04-27 20:26:00,76.3,35.0,29.96,WSW,246,7.0,-999.0,22,-99.99,,,0.00,weatherlink.com 1.10,2013-04-28 03:26:00,
2013-04-27 20:41:00,75.3,35.0,29.97,SSW,198,10.0,-999.0,23,-99.99,,,0.00,weatherlink.com 1.10,2013-04-28 03:41:00,
2013-04-27 20:56:00,75.1,31.0,29.97,WSW,239,0.0,-999.0,20,-99.99,,,0.00,weatherlink.com 1.10,2013-04-28 03:56:00,
2013-04-27 21:11:00,75.4,30.0,29.97,WSW,257,6.0,-999.0,19,-99.99,,,0.00,weatherlink.com 1.10,2013-04-28 04:11:00,
2013-04-27 21:26:00,76.0,32.0,29.97,WSW,257,8.0,-999.0,20,-99.99,,,0.00,weatherlink.com 1.10,2013-04-28 04:26:00,
2013-04-27 21:42:00,75.8,33.0,29.97,SW,234,4.0,-999.0,21,-99.99,,,0.00,weatherlink.com 1.10,2013-04-28 04:42:00,
2013-04-27 21:57:00,76.0,29.0,29.96,WSW,244,7.0,-999.0,18,-99.99,,,0.00,weatherlink.com 1.10,2013-04-28 04:57:00,
2013-04-27 22:12:00,75.8,29.0,29.97,West,259,6.0,-999.0,18,-99.99,,,0.00,weatherlink.com 1.10,2013-04-28 05:12:00,
2013-04-27 22:27:00,75.1,27.0,29.96,WSW,239,1.0,-999.0,17,-99.99,,,0.00,weatherlink.com 1.10,2013-04-28 05:27:00,
2013-04-27 22:42:00,74.9,27.0,29.95,West,263,6.0,-999.0,17,-99.99,,,0.00,weatherlink.com 1.10,2013-04-28 05:42:00,
2013-04-27 22:57:00,74.2,32.0,29.95,SW,231,9.0,-999.0,21,-99.99,,,0.00,weatherlink.com 1.10,2013-04-28 05:57:00,
2013-04-27 23:12:00,73.9,32.0,29.95,SW,217,5.0,-999.0,21,-99.99,,,0.00,weatherlink.com 1.10,2013-04-28 06:12:00,
2013-04-27 23:27:00,73.9,32.0,29.94,WSW,245,4.0,-999.0,21,-99.99,,,0.00,weatherlink.com 1.10,2013-04-28 06:27:00,
2013-04-27 23:42:00,72.8,31.0,29.94,WSW,254,2.0,-999.0,21,-99.99,,,0.00,weatherlink.com 1.10,2013-04-28 06:42:00,
2013-04-27 23:57:00,71.8,31.0,29.94,WSW,242,1.0,-999.0,22,-99.99,,,0.00,weatherlink.com 1.10,2013-04-28 06:57:00,